Time;durP1;ratioP1;P1;durP2;ratioP2;P2;SDS_P1;SDS_P2;PMS_P1;PMS_P2;Temp;Humidity;BMP_temperature;BMP_pressure;BME280_temperature;BME280_humidity;BME280_pressure;Samples;Min_cycle;Max_cycle;Signal;HPM_P1;HPM_P2
2024/04/22 00:02:09;;;;;;;3.63;3.13;;;12.00;99.90;;;;;;5413291;26;20019;-61
2024/04/22 00:04:35;;;;;;;1.80;1.08;;;11.80;99.90;;;;;;5413625;26;20011;-61
2024/04/22 00:07:00;;;;;;;0.60;0.60;;;11.70;99.90;;;;;;5413863;26;20396;-61
2024/04/22 00:09:26;;;;;;;1.02;0.40;;;11.70;99.90;;;;;;5412148;26;20076;-61
2024/04/22 00:11:52;;;;;;;0.75;0.75;;;11.60;99.90;;;;;;5399219;26;20072;-61
2024/04/22 00:14:17;;;;;;;0.60;0.60;;;11.80;99.90;;;;;;5399865;26;20136;-61
2024/04/22 00:16:43;;;;;;;1.13;0.93;;;11.90;99.90;;;;;;5412331;26;20014;-61
2024/04/22 00:19:09;;;;;;;0.70;0.70;;;12.00;99.90;;;;;;5412481;26;20000;-61
2024/04/22 00:21:34;;;;;;;1.17;0.90;;;12.00;99.90;;;;;;5413930;26;20068;-60
2024/04/22 00:24:01;;;;;;;0.75;0.70;;;11.90;99.90;;;;;;5415345;26;20073;-61
2024/04/22 00:26:26;;;;;;;2.37;0.60;;;11.80;99.90;;;;;;5405391;26;20019;-61
2024/04/22 00:28:53;;;;;;;1.42;0.60;;;12.00;99.90;;;;;;5415877;26;19999;-61
2024/04/22 00:31:18;;;;;;;2.53;1.00;;;12.00;99.90;;;;;;5415637;26;20000;-61
2024/04/22 00:33:44;;;;;;;1.15;0.95;;;11.90;99.90;;;;;;5415221;26;20297;-61
2024/04/22 00:36:10;;;;;;;1.42;0.90;;;11.90;99.90;;;;;;5415419;26;20068;-61
2024/04/22 00:38:36;;;;;;;0.80;0.80;;;11.90;99.90;;;;;;5415364;26;20085;-60
2024/04/22 00:41:02;;;;;;;1.08;1.00;;;11.90;99.90;;;;;;5415569;26;20003;-60
2024/04/22 00:43:28;;;;;;;1.00;0.80;;;11.80;99.90;;;;;;5415280;26;20054;-60
2024/04/22 00:45:54;;;;;;;1.20;0.80;;;11.90;99.90;;;;;;5403290;26;20004;-60
2024/04/22 00:48:22;;;;;;;1.23;0.88;;;11.80;99.90;;;;;;5403301;26;20360;-61
2024/04/22 00:50:49;;;;;;;0.70;0.70;;;11.90;99.90;;;;;;5413549;26;20003;-61
2024/04/22 00:53:16;;;;;;;1.10;0.77;;;11.90;99.90;;;;;;5415269;26;20011;-60
2024/04/22 00:55:43;;;;;;;2.20;0.93;;;11.80;99.90;;;;;;5415636;26;20007;-60
2024/04/22 00:58:11;;;;;;;1.10;1.00;;;11.80;99.90;;;;;;5415777;26;20218;-60
2024/04/22 01:00:37;;;;;;;0.70;0.70;;;11.80;99.90;;;;;;5416375;26;20014;-60
2024/04/22 01:03:03;;;;;;;1.43;0.93;;;11.80;99.90;;;;;;5416520;26;20429;-60
2024/04/22 01:05:29;;;;;;;1.08;0.95;;;11.80;99.90;;;;;;5415846;26;20018;-61
2024/04/22 01:07:54;;;;;;;0.90;0.90;;;11.70;99.90;;;;;;5414703;26;20077;-60
2024/04/22 01:10:22;;;;;;;0.90;0.90;;;11.60;99.90;;;;;;5415844;26;20007;-60
2024/04/22 01:12:47;;;;;;;1.17;0.90;;;11.70;99.90;;;;;;5415162;26;20342;-61
2024/04/22 01:15:13;;;;;;;0.80;0.80;;;11.70;99.90;;;;;;5415151;26;20003;-60
2024/04/22 01:17:40;;;;;;;1.07;0.53;;;11.70;99.90;;;;;;5413160;26;20380;-60
2024/04/22 01:20:08;;;;;;;1.27;0.83;;;11.90;99.90;;;;;;5412701;26;20548;-61
2024/04/22 01:22:34;;;;;;;1.63;0.65;;;11.80;99.90;;;;;;5395420;26;20000;-60
2024/04/22 01:25:01;;;;;;;1.20;0.90;;;11.80;99.90;;;;;;5394569;26;20017;-61
2024/04/22 01:27:52;;;;;;;1.23;0.52;;;11.60;99.90;;;;;;5411672;26;20421;-60
2024/04/22 01:30:17;;;;;;;0.50;0.40;;;11.50;99.90;;;;;;5399187;26;20117;-61
2024/04/22 01:32:43;;;;;;;1.23;0.57;;;11.40;99.90;;;;;;5409034;26;20352;-60
2024/04/22 01:35:09;;;;;;;0.63;0.63;;;11.50;99.90;;;;;;5407192;26;20011;-61
2024/04/22 01:37:35;;;;;;;0.40;0.40;;;11.20;99.90;;;;;;5408616;26;20015;-60
2024/04/22 01:40:01;;;;;;;0.40;0.30;;;11.30;99.90;;;;;;5378117;26;20018;-60
2024/04/22 01:42:26;;;;;;;0.40;0.20;;;11.30;99.90;;;;;;5410690;26;20018;-60
2024/04/22 01:44:52;;;;;;;2.25;0.50;;;11.40;99.90;;;;;;5414426;26;20000;-60
2024/04/22 01:47:18;;;;;;;0.33;0.20;;;;;;;;;;5413798;26;20008;-60
2024/04/22 01:49:44;;;;;;;0.30;0.30;;;11.20;99.90;;;;;;5408611;26;20018;-60
2024/04/22 01:52:11;;;;;;;2.30;0.50;;;11.20;99.90;;;;;;5413625;26;19999;-60
2024/04/22 01:54:37;;;;;;;0.97;0.23;;;11.00;99.90;;;;;;5405445;26;20042;-60
2024/04/22 01:57:02;;;;;;;0.87;0.43;;;11.00;99.90;;;;;;5394906;26;20003;-60
2024/04/22 01:59:29;;;;;;;1.67;0.70;;;10.90;99.90;;;;;;5411768;26;20003;-60
2024/04/22 02:01:55;;;;;;;2.27;1.30;;;10.80;99.90;;;;;;5413717;26;20011;-60
2024/04/22 02:04:21;;;;;;;2.40;1.00;;;10.70;99.90;;;;;;5412493;26;19999;-60
2024/04/22 02:06:47;;;;;;;1.53;1.30;;;10.80;99.90;;;;;;5413708;26;20007;-60
2024/04/22 02:09:12;;;;;;;7.53;2.10;;;10.80;99.90;;;;;;5410711;26;20012;-61
2024/04/22 02:11:38;;;;;;;2.23;1.80;;;10.80;99.90;;;;;;5408430;26;20073;-61
2024/04/22 02:14:04;;;;;;;1.73;1.63;;;10.80;99.90;;;;;;5414458;26;20011;-60
2024/04/22 02:16:29;;;;;;;2.67;2.10;;;10.80;99.90;;;;;;5414030;26;20084;-61
2024/04/22 02:18:58;;;;;;;2.27;2.13;;;10.70;99.90;;;;;;5413813;26;20014;-61
2024/04/22 02:21:28;;;;;;;2.30;2.10;;;10.60;99.90;;;;;;5413965;26;20007;-61
2024/04/22 02:23:54;;;;;;;2.70;2.50;;;10.50;99.90;;;;;;5408304;26;20004;-61
2024/04/22 02:26:20;;;;;;;2.57;2.37;;;10.60;99.90;;;;;;5401172;26;20003;-61
2024/04/22 02:28:53;;;;;;;2.43;2.23;;;10.80;99.90;;;;;;5413990;26;20010;-61
2024/04/22 02:31:22;;;;;;;3.10;2.90;;;10.60;99.90;;;;;;5414624;26;20451;-63
2024/04/22 02:33:47;;;;;;;2.33;2.13;;;10.50;99.90;;;;;;5412491;26;20053;-61
2024/04/22 02:36:13;;;;;;;2.20;2.10;;;10.60;99.90;;;;;;5414479;26;20003;-61
2024/04/22 02:38:39;;;;;;;2.40;2.20;;;10.70;99.90;;;;;;5414204;26;19999;-61
2024/04/22 02:41:05;;;;;;;2.40;2.20;;;10.60;99.90;;;;;;5414172;26;20015;-61
2024/04/22 02:43:31;;;;;;;2.63;2.43;;;10.70;99.90;;;;;;5390457;26;20009;-61
2024/04/22 02:45:56;;;;;;;3.17;2.87;;;10.80;99.90;;;;;;5414502;26;19999;-61
2024/04/22 02:48:22;;;;;;;2.30;2.10;;;10.80;99.90;;;;;;5412939;26;20011;-61
2024/04/22 02:50:48;;;;;;;2.03;1.83;;;10.60;99.90;;;;;;5414838;26;20003;-61
2024/04/22 02:53:13;;;;;;;2.20;2.10;;;10.60;99.90;;;;;;5415009;26;20080;-61
2024/04/22 02:55:39;;;;;;;2.53;2.00;;;10.70;99.90;;;;;;5414975;26;20003;-61
2024/04/22 02:58:05;;;;;;;1.87;1.77;;;10.60;99.90;;;;;;5414819;26;19999;-61
2024/04/22 03:00:30;;;;;;;2.40;2.17;;;10.70;99.90;;;;;;5414882;26;20015;-61
2024/04/22 03:02:56;;;;;;;2.60;2.20;;;10.60;99.90;;;;;;5414816;26;20000;-61
2024/04/22 03:05:21;;;;;;;1.80;1.70;;;10.70;99.90;;;;;;5414471;26;20441;-61
2024/04/22 03:07:47;;;;;;;3.20;1.97;;;10.60;99.90;;;;;;5414507;26;20011;-61
2024/04/22 03:10:13;;;;;;;2.23;1.83;;;10.60;99.90;;;;;;5414649;26;20000;-61
2024/04/22 03:12:38;;;;;;;1.67;1.20;;;10.60;99.90;;;;;;5413071;26;20004;-61
2024/04/22 03:15:04;;;;;;;3.30;1.20;;;10.50;99.90;;;;;;5397461;26;20070;-61
2024/04/22 03:20:52;;;;;;;1.77;0.50;;;;;;;;;;5383743;26;20444;-60
2024/04/22 03:23:18;;;;;;;0.30;0.30;;;10.50;99.90;;;;;;5414065;26;20007;-60
2024/04/22 03:25:43;;;;;;;2.10;0.50;;;10.20;99.90;;;;;;5414588;26;20415;-60
2024/04/22 03:28:09;;;;;;;0.37;0.37;;;10.10;99.90;;;;;;5413866;26;20018;-60
2024/04/22 03:30:35;;;;;;;0.40;0.30;;;10.10;99.90;;;;;;5414253;26;20847;-60
2024/04/22 03:33:01;;;;;;;0.30;0.30;;;;;;;;;;5412418;26;20121;-60
2024/04/22 03:35:28;;;;;;;1.30;0.30;;;;;;;;;;5414072;26;20017;-60
2024/04/22 03:37:54;;;;;;;1.47;0.53;;;;;;;;;;5392024;26;20014;-60
2024/04/22 03:40:19;;;;;;;0.20;0.20;;;9.80;99.90;;;;;;5411225;26;20015;-61
2024/04/22 03:42:45;;;;;;;0.80;0.63;;;9.60;99.90;;;;;;5413865;26;20015;-60
2024/04/22 03:45:10;;;;;;;0.10;0.10;;;9.70;99.90;;;;;;5413802;26;20187;-60
2024/04/22 03:50:20;;;;;;;0.40;0.40;;;9.40;99.90;;;;;;5414026;26;20149;-60
2024/04/22 03:52:46;;;;;;;0.60;0.30;;;9.20;99.90;;;;;;5414082;26;20015;-60
2024/04/22 03:55:11;;;;;;;0.30;0.20;;;9.30;99.90;;;;;;5413472;26;20414;-60
2024/04/22 03:57:37;;;;;;;2.07;0.30;;;9.30;99.90;;;;;;5416602;26;20022;-61
2024/04/22 04:00:02;;;;;;;0.70;0.30;;;9.30;99.90;;;;;;5415314;26;20007;-60
2024/04/22 04:02:28;;;;;;;0.53;0.30;;;9.30;99.90;;;;;;5416978;26;20071;-60
2024/04/22 04:04:55;;;;;;;1.03;0.20;;;9.30;99.90;;;;;;5416659;26;20394;-62
2024/04/22 04:07:20;;;;;;;0.60;0.10;;;9.30;99.90;;;;;;5409461;26;20044;-60
2024/04/22 04:09:46;;;;;;;0.10;0.10;;;9.00;4.30;;;;;;5413319;26;20514;-60
2024/04/22 04:12:11;;;;;;;1.03;0.20;;;9.10;1.00;;;;;;5416840;26;20015;-61
2024/04/22 04:14:37;;;;;;;0.20;0.13;;;8.90;1.00;;;;;;5416897;26;20019;-60
2024/04/22 04:17:03;;;;;;;0.80;0.30;;;8.80;99.90;;;;;;5417133;26;20073;-61
2024/04/22 04:19:29;;;;;;;0.57;0.20;;;9.00;99.90;;;;;;5392020;26;20000;-60
2024/04/22 04:21:55;;;;;;;0.60;0.27;;;8.80;99.90;;;;;;5408594;26;20004;-60
2024/04/22 04:24:20;;;;;;;0.47;0.20;;;9.10;99.90;;;;;;5413279;26;20027;-60
2024/04/22 04:26:46;;;;;;;1.60;0.27;;;9.30;99.90;;;;;;5416666;26;20018;-60
2024/04/22 04:29:12;;;;;;;0.20;0.20;;;9.30;99.90;;;;;;5416835;26;20018;-60
2024/04/22 04:31:37;;;;;;;0.63;0.10;;;9.20;1.00;;;;;;5416338;26;20023;-60
2024/04/22 04:34:03;;;;;;;0.20;0.13;;;9.20;1.00;;;;;;5416715;26;20013;-60
2024/04/22 04:36:28;;;;;;;2.20;0.40;;;9.00;1.00;;;;;;5416647;26;19999;-60
2024/04/22 04:38:54;;;;;;;0.37;0.20;;;9.00;1.00;;;;;;5404918;26;20015;-60
2024/04/22 04:41:20;;;;;;;1.10;0.40;;;9.00;1.00;;;;;;5403424;26;20310;-60
2024/04/22 04:43:45;;;;;;;1.27;0.40;;;9.00;2.20;;;;;;5414475;26;20014;-61
2024/04/22 04:46:11;;;;;;;0.93;0.30;;;9.00;78.30;;;;;;5399305;26;20405;-60
2024/04/22 04:48:43;;;;;;;1.27;0.30;;;9.00;99.90;;;;;;5385951;26;20059;-60
2024/04/22 04:51:08;;;;;;;1.60;0.40;;;9.00;99.90;;;;;;5416333;26;20019;-60
2024/04/22 04:53:34;;;;;;;1.30;0.30;;;9.10;70.00;;;;;;5416376;26;20358;-61
2024/04/22 04:56:01;;;;;;;0.63;0.40;;;9.00;46.90;;;;;;5416312;26;20003;-60
2024/04/22 04:58:26;;;;;;;1.63;0.40;;;9.00;1.00;;;;;;5414579;26;20334;-60
2024/04/22 05:00:52;;;;;;;1.20;0.63;;;9.00;1.00;;;;;;5416086;26;20084;-61
2024/04/22 05:03:17;;;;;;;2.10;0.70;;;9.00;1.00;;;;;;5415969;26;20004;-60
2024/04/22 05:05:43;;;;;;;1.57;0.50;;;9.00;1.00;;;;;;5416493;26;20046;-60
2024/04/22 05:08:09;;;;;;;2.63;0.90;;;9.00;1.00;;;;;;5414495;26;20003;-60
2024/04/22 05:10:34;;;;;;;1.67;0.70;;;8.90;1.00;;;;;;5395540;26;20004;-60
2024/04/22 05:13:00;;;;;;;1.23;1.03;;;9.00;1.00;;;;;;5411429;26;20076;-60
2024/04/22 05:15:26;;;;;;;2.17;0.63;;;9.10;1.00;;;;;;5416400;26;20003;-60
2024/04/22 05:17:51;;;;;;;1.70;0.90;;;9.10;1.00;;;;;;5414075;26;20003;-60
2024/04/22 05:20:17;;;;;;;0.87;0.57;;;;;;;;;;5414216;26;20003;-60
2024/04/22 05:22:43;;;;;;;0.90;0.50;;;;;;;;;;5415639;26;20015;-59
2024/04/22 05:25:09;;;;;;;0.90;0.50;;;;;;;;;;5415631;26;20086;-59
2024/04/22 05:28:01;;;;;;;1.10;0.63;;;;;;;;;;5413633;26;20334;-60
2024/04/22 05:30:28;;;;;;;1.10;0.77;;;;;;;;;;5393068;26;20003;-60
2024/04/22 05:32:54;;;;;;;1.27;0.53;;;;;;;;;;5413624;26;20008;-60
2024/04/22 05:38:05;;;;;;;0.60;0.60;;;;;;;;;;5415894;26;20017;-60
2024/04/22 05:40:31;;;;;;;1.10;0.50;;;;;;;;;;5404312;26;20004;-59
2024/04/22 05:42:57;;;;;;;1.63;0.60;;;;;;;;;;5415871;26;20003;-60
2024/04/22 05:45:23;;;;;;;0.97;0.60;;;;;;;;;;5390836;26;20031;-60
2024/04/22 05:47:49;;;;;;;0.87;0.50;;;;;;;;;;5393186;26;20070;-59
2024/04/22 05:50:46;;;;;;;1.00;0.77;;;;;;;;;;5412690;26;19999;-60
2024/04/22 05:53:12;;;;;;;0.40;0.40;;;9.20;1.00;;;;;;5412454;26;20007;-60
2024/04/22 05:55:38;;;;;;;2.70;0.80;;;9.10;1.00;;;;;;5395304;26;20004;-60
2024/04/22 05:58:04;;;;;;;2.70;0.77;;;9.10;1.00;;;;;;5410740;26;20480;-60
2024/04/22 06:00:29;;;;;;;3.77;0.90;;;9.10;1.00;;;;;;5413165;26;20003;-60
2024/04/22 06:02:55;;;;;;;0.80;0.40;;;8.90;1.00;;;;;;5414917;26;20007;-60
2024/04/22 06:05:20;;;;;;;1.60;0.53;;;9.00;1.00;;;;;;5414767;26;20014;-60
2024/04/22 06:11:08;;;;;;;3.70;2.60;;;9.00;1.00;;;;;;5404248;26;20011;-60
2024/04/22 06:13:34;;;;;;;2.30;1.60;;;8.90;1.00;;;;;;5398420;26;20004;-60
2024/04/22 06:16:00;;;;;;;1.70;1.03;;;8.90;1.00;;;;;;5404705;26;20017;-59
2024/04/22 06:18:25;;;;;;;1.03;0.33;;;8.80;1.00;;;;;;5403474;26;20015;-60
2024/04/22 06:20:51;;;;;;;2.17;0.57;;;8.80;1.00;;;;;;5395151;26;20051;-59
2024/04/22 06:23:16;;;;;;;1.73;0.40;;;8.60;1.00;;;;;;5415263;26;20003;-60
2024/04/22 06:25:42;;;;;;;4.13;0.57;;;8.80;1.00;;;;;;5409361;26;20050;-59
2024/04/22 06:28:08;;;;;;;1.20;0.20;;;;;;;;;;5406730;26;19995;-59
2024/04/22 06:30:34;;;;;;;0.50;0.20;;;;;;;;;;5400221;26;19995;-60
2024/04/22 06:33:00;;;;;;;1.30;0.70;;;;;;;;;;5409893;26;20003;-60
2024/04/22 06:35:26;;;;;;;0.40;0.20;;;;;;;;;;5411342;26;20076;-60
2024/04/22 06:37:52;;;;;;;0.30;0.30;;;8.90;1.00;;;;;;5398964;26;20004;-60
2024/04/22 06:40:18;;;;;;;0.47;0.40;;;8.80;1.00;;;;;;5402328;26;20080;-60
2024/04/22 06:42:44;;;;;;;1.80;0.47;;;8.80;1.00;;;;;;5414060;26;20010;-59
2024/04/22 06:45:10;;;;;;;2.63;0.60;;;8.70;1.00;;;;;;5414684;26;20430;-58
2024/04/22 06:47:35;;;;;;;2.13;0.40;;;8.70;1.00;;;;;;5390942;26;20068;-59
2024/04/22 06:50:01;;;;;;;2.17;0.50;;;8.60;1.00;;;;;;5415089;26;19999;-59
2024/04/22 06:52:27;;;;;;;0.47;0.40;;;8.70;1.00;;;;;;5414750;26;19999;-58
2024/04/22 06:54:52;;;;;;;1.07;0.47;;;8.80;1.00;;;;;;5413155;26;20006;-59
2024/04/22 06:57:18;;;;;;;1.87;0.47;;;8.70;1.00;;;;;;5404492;26;20445;-59
2024/04/22 06:59:46;;;;;;;0.63;0.50;;;8.80;1.00;;;;;;5413307;26;20054;-60
2024/04/22 07:02:13;;;;;;;3.77;0.60;;;8.80;1.00;;;;;;5407175;26;20001;-58
2024/04/22 07:05:00;;;;;;;0.57;0.40;;;;;;;;;;5395085;26;20073;-59
2024/04/22 07:07:26;;;;;;;1.97;0.83;;;;;;;;;;5414192;26;20022;-57
2024/04/22 07:09:52;;;;;;;2.77;1.20;;;8.80;1.00;;;;;;5414849;26;20003;-58
2024/04/22 07:12:18;;;;;;;2.43;0.77;;;8.90;1.00;;;;;;5414360;26;20017;-58
2024/04/22 07:14:43;;;;;;;1.10;0.70;;;8.90;1.00;;;;;;5414403;26;20035;-58
2024/04/22 07:20:31;;;;;;;0.60;0.57;;;8.90;1.00;;;;;;5400056;26;20074;-59
2024/04/22 07:22:56;;;;;;;1.57;0.73;;;8.90;1.00;;;;;;5414502;26;20142;-59
2024/04/22 07:25:22;;;;;;;0.90;0.50;;;8.80;1.00;;;;;;5412227;26;20028;-58
2024/04/22 07:27:48;;;;;;;1.27;0.47;;;8.80;1.00;;;;;;5407625;26;20089;-60
2024/04/22 07:30:14;;;;;;;0.87;0.40;;;8.70;1.00;;;;;;5393896;26;20000;-59
2024/04/22 07:32:40;;;;;;;1.03;0.40;;;8.70;1.00;;;;;;5411155;26;19999;-59
2024/04/22 07:35:06;;;;;;;0.50;0.40;;;8.70;1.00;;;;;;5414008;26;20073;-60
2024/04/22 07:37:39;;;;;;;0.23;0.20;;;8.70;1.00;;;;;;5414225;26;20004;-59
2024/04/22 07:40:15;;;;;;;0.10;0.10;;;8.80;1.00;;;;;;5414200;26;20015;-60
2024/04/22 07:42:42;;;;;;;0.37;0.20;;;8.60;1.00;;;;;;5413975;26;20021;-60
2024/04/22 07:45:08;;;;;;;1.33;0.47;;;;;;;;;;5413999;26;20101;-59
2024/04/22 07:47:34;;;;;;;1.70;0.60;;;;;;;;;;5413293;26;20037;-58
2024/04/22 07:50:00;;;;;;;0.87;0.30;;;;;;;;;;5388377;26;20004;-60
2024/04/22 07:52:26;;;;;;;2.67;0.50;;;8.70;1.00;;;;;;5414059;26;20049;-59
2024/04/22 07:54:52;;;;;;;0.80;0.27;;;8.70;1.00;;;;;;5393348;26;20323;-60
2024/04/22 07:57:18;;;;;;;0.70;0.20;;;8.60;1.00;;;;;;5411733;26;20074;-60
2024/04/22 07:59:44;;;;;;;2.27;0.33;;;8.50;1.00;;;;;;5413912;26;20045;-58
2024/04/22 08:02:10;;;;;;;1.40;0.90;;;;;;;;;;5405403;26;20004;-58
2024/04/22 08:04:36;;;;;;;2.23;1.57;;;;;;;;;;5397743;26;20436;-58
2024/04/22 08:07:04;;;;;;;0.87;0.50;;;;;;;;;;5413684;26;20019;-59
2024/04/22 08:09:30;;;;;;;2.97;0.70;;;8.50;1.00;;;;;;5401310;26;20037;-59
2024/04/22 08:11:57;;;;;;;2.30;0.80;;;8.60;1.00;;;;;;5403413;26;20349;-61
2024/04/22 08:14:22;;;;;;;1.53;0.30;;;8.40;1.00;;;;;;5413722;26;20406;-59
2024/04/22 08:16:48;;;;;;;0.30;0.30;;;8.40;1.00;;;;;;5413809;26;20072;-59
2024/04/22 08:19:13;;;;;;;1.20;0.20;;;8.40;1.00;;;;;;5411483;26;20015;-59
2024/04/22 08:21:39;;;;;;;1.03;0.47;;;8.50;1.00;;;;;;5413476;26;19999;-59
2024/04/22 08:24:05;;;;;;;0.70;0.40;;;8.40;1.00;;;;;;5413287;26;20414;-59
2024/04/22 08:26:32;;;;;;;1.23;0.30;;;8.30;1.00;;;;;;5411568;26;20004;-59
2024/04/22 08:28:57;;;;;;;0.40;0.27;;;8.40;1.00;;;;;;5413150;26;20004;-60
2024/04/22 08:31:23;;;;;;;2.40;0.40;;;8.40;1.00;;;;;;5411418;26;20010;-59
2024/04/22 08:33:49;;;;;;;1.23;0.60;;;8.50;1.00;;;;;;5413110;26;20000;-59
2024/04/22 08:36:15;;;;;;;2.20;0.67;;;8.20;1.00;;;;;;5413365;26;20079;-59
2024/04/22 08:38:41;;;;;;;1.53;0.90;;;8.30;1.00;;;;;;5413107;26;20011;-59
2024/04/22 08:41:11;;;;;;;11.47;4.77;;;8.40;1.00;;;;;;5387907;26;20366;-59
2024/04/22 08:43:36;;;;;;;1.60;0.70;;;8.50;1.00;;;;;;5416164;26;20003;-60
2024/04/22 08:46:02;;;;;;;1.07;0.60;;;8.30;1.00;;;;;;5389547;26;20007;-59
2024/04/22 08:48:29;;;;;;;2.53;0.70;;;8.30;1.00;;;;;;5416676;26;20131;-60
2024/04/22 08:50:57;;;;;;;2.47;0.40;;;8.20;1.00;;;;;;5416666;26;20381;-60
2024/04/22 08:53:23;;;;;;;0.47;0.47;;;8.20;1.00;;;;;;5416444;26;20026;-59
2024/04/22 08:55:49;;;;;;;0.50;0.50;;;8.20;1.00;;;;;;5413836;26;20000;-60
2024/04/22 08:58:15;;;;;;;3.80;0.90;;;8.30;1.00;;;;;;5416267;26;20399;-60
2024/04/22 09:00:42;;;;;;;1.30;0.97;;;8.40;1.00;;;;;;5392853;26;20318;-59
2024/04/22 09:06:30;;;;;;;4.30;1.30;;;8.40;1.00;;;;;;5385726;26;20559;-59
2024/04/22 09:08:57;;;;;;;1.87;1.77;;;8.40;1.00;;;;;;5413258;26;20085;-58
2024/04/22 09:11:29;;;;;;;2.10;1.10;;;8.60;1.00;;;;;;5416276;26;20077;-59
2024/04/22 09:14:20;;;;;;;1.83;0.90;;;8.50;1.00;;;;;;5416203;26;20004;-59
2024/04/22 09:16:46;;;;;;;0.93;0.60;;;8.50;1.00;;;;;;5411568;26;20080;-59
2024/04/22 09:19:25;;;;;;;1.13;0.57;;;8.50;1.00;;;;;;5415967;26;20015;-59
2024/04/22 09:21:52;;;;;;;0.63;0.50;;;8.50;1.00;;;;;;5414625;26;20004;-59
2024/04/22 09:24:19;;;;;;;0.90;0.60;;;8.40;1.00;;;;;;5416230;26;20341;-59
2024/04/22 09:26:45;;;;;;;0.50;0.50;;;;;;;;;;5416377;26;20356;-59
2024/04/22 09:29:34;;;;;;;0.67;0.67;;;;;;;;;;5416277;26;20449;-60
2024/04/22 09:32:02;;;;;;;3.77;0.90;;;;;;;;;;5415931;26;20003;-59
2024/04/22 09:34:28;;;;;;;2.70;0.90;;;;;;;;;;5413893;26;20004;-59
2024/04/22 09:36:56;;;;;;;3.63;0.80;;;;;;;;;;5416123;26;20000;-59
2024/04/22 09:39:22;;;;;;;0.87;0.50;;;;;;;;;;5413912;26;19999;-59
2024/04/22 09:41:49;;;;;;;1.13;0.80;;;;;;;;;;5415829;26;20000;-60
2024/04/22 09:44:15;;;;;;;1.00;0.90;;;;;;;;;;5415918;26;20571;-60
2024/04/22 09:46:43;;;;;;;1.37;0.80;;;;;;;;;;5415669;26;20068;-60
2024/04/22 09:49:10;;;;;;;0.50;0.40;;;;;;;;;;5415933;26;20301;-60
2024/04/22 09:51:36;;;;;;;0.47;0.47;;;;;;;;;;5415747;26;20344;-59
2024/04/22 09:54:03;;;;;;;1.70;0.53;;;;;;;;;;5412303;26;20096;-59
2024/04/22 09:56:48;;;;;;;1.53;0.67;;;;;;;;;;5415692;26;20445;-59
2024/04/22 09:59:14;;;;;;;1.40;0.60;;;;;;;;;;5395413;26;20000;-59
2024/04/22 10:01:41;;;;;;;1.93;0.70;;;;;;;;;;5415794;26;20075;-59
2024/04/22 10:04:07;;;;;;;0.70;0.70;;;;;;;;;;5415875;26;20031;-60
2024/04/22 10:06:33;;;;;;;0.87;0.53;;;;;;;;;;5414079;26;20015;-59
2024/04/22 10:08:59;;;;;;;2.10;0.57;;;;;;;;;;5415222;26;19999;-59
2024/04/22 10:11:30;;;;;;;0.70;0.60;;;;;;;;;;5415688;26;20010;-59
2024/04/22 10:14:16;;;;;;;1.10;0.60;;;;;;;;;;5415868;26;20010;-60
2024/04/22 10:16:53;;;;;;;1.40;0.57;;;;;;;;;;5415760;26;20014;-60
2024/04/22 10:19:19;;;;;;;2.10;1.10;;;;;;;;;;5415313;26;20076;-59
2024/04/22 10:21:49;;;;;;;0.87;0.77;;;;;;;;;;5415447;26;20004;-60
2024/04/22 10:24:15;;;;;;;1.03;0.80;;;;;;;;;;5415429;26;20003;-59
2024/04/22 10:26:42;;;;;;;3.27;1.10;;;;;;;;;;5415623;26;20000;-59
2024/04/22 10:29:09;;;;;;;1.90;1.13;;;;;;;;;;5415340;26;20137;-59
2024/04/22 10:31:36;;;;;;;2.00;1.10;;;;;;;;;;5409267;26;20392;-59
2024/04/22 10:34:02;;;;;;;1.37;0.60;;;;;;;;;;5415307;26;20071;-59
2024/04/22 10:36:28;;;;;;;1.23;0.60;;;;;;;;;;5413762;26;20342;-59
2024/04/22 10:38:55;;;;;;;2.30;1.50;;;;;;;;;;5415135;26;20003;-59
2024/04/22 10:41:23;;;;;;;2.57;1.27;;;;;;;;;;5415134;26;20076;-59
2024/04/22 10:43:50;;;;;;;3.53;0.93;;;;;;;;;;5415066;26;19999;-60
2024/04/22 10:46:16;;;;;;;3.93;2.30;;;;;;;;;;5394233;26;20341;-60
2024/04/22 10:48:42;;;;;;;1.80;1.60;;;;;;;;;;5414858;26;20014;-59
2024/04/22 10:51:10;;;;;;;2.37;1.80;;;;;;;;;;5413264;26;20442;-60
2024/04/22 10:53:36;;;;;;;2.90;1.93;;;;;;;;;;5415299;26;20015;-60
2024/04/22 10:56:24;;;;;;;2.40;1.83;;;;;;;;;;5414952;26;20010;-59
2024/04/22 10:58:51;;;;;;;1.77;1.33;;;;;;;;;;5414117;26;20003;-60
2024/04/22 11:01:17;;;;;;;2.60;1.87;;;;;;;;;;5399966;26;20457;-59
2024/04/22 11:03:43;;;;;;;2.43;1.40;;;;;;;;;;5414812;26;20014;-59
2024/04/22 11:06:11;;;;;;;1.57;1.17;;;;;;;;;;5414868;26;19999;-59
2024/04/22 11:08:42;;;;;;;1.07;0.93;;;;;;;;;;5412769;26;20012;-59
2024/04/22 11:11:08;;;;;;;2.47;1.20;;;;;;;;;;5414813;26;20077;-59
2024/04/22 11:13:35;;;;;;;1.73;1.63;;;;;;;;;;5414563;26;20468;-59
2024/04/22 11:19:06;;;;;;;3.33;1.43;;;;;;;;;;5393236;26;20409;-59
2024/04/22 11:21:33;;;;;;;3.40;1.60;;;;;;;;;;5404502;26;20019;-58
2024/04/22 11:23:59;;;;;;;1.67;1.20;;;;;;;;;;5399364;26;20001;-57
2024/04/22 11:26:26;;;;;;;1.27;1.00;;;;;;;;;;5399216;26;20030;-58
2024/04/22 11:28:55;;;;;;;0.83;0.53;;;8.90;99.90;;;;;;5393392;26;20000;-58
2024/04/22 11:31:22;;;;;;;1.63;1.30;;;8.80;99.90;;;;;;5407741;26;20034;-58
2024/04/22 11:33:48;;;;;;;1.87;1.30;;;;;;;;;;5404793;26;20641;-59
2024/04/22 11:36:14;;;;;;;5.13;2.10;;;;;;;;;;5396095;26;20001;-59
2024/04/22 11:38:40;;;;;;;8.93;5.27;;;;;;;;;;5400206;26;20371;-59
2024/04/22 11:41:06;;;;;;;3.03;2.30;;;;;;;;;;5396389;26;20079;-59
2024/04/22 11:43:32;;;;;;;1.83;1.37;;;;;;;;;;5398191;26;20004;-55
2024/04/22 11:45:58;;;;;;;2.07;1.40;;;;;;;;;;5388473;26;20427;-58
2024/04/22 11:48:24;;;;;;;2.90;1.20;;;;;;;;;;5410483;26;19999;-60
2024/04/22 11:50:50;;;;;;;3.40;1.23;;;;;;;;;;5398323;26;20446;-57
2024/04/22 11:53:16;;;;;;;5.43;3.10;;;;;;;;;;5394638;26;20054;-57
2024/04/22 11:55:43;;;;;;;1.60;1.20;;;;;;;;;;5400150;26;20007;-59
2024/04/22 11:58:09;;;;;;;2.67;2.40;;;;;;;;;;5394837;26;20017;-58
2024/04/22 12:00:35;;;;;;;3.60;2.70;;;;;;;;;;5409297;26;20004;-59
2024/04/22 12:03:01;;;;;;;2.03;1.23;;;;;;;;;;5403688;26;20104;-58
2024/04/22 12:05:26;;;;;;;3.93;2.50;;;8.80;99.90;;;;;;5396929;26;20053;-58
2024/04/22 12:07:52;;;;;;;3.33;1.93;;;;;;;;;;5398350;26;20426;-58
2024/04/22 12:10:18;;;;;;;5.23;2.47;;;8.80;99.90;;;;;;5410224;26;20011;-59
2024/04/22 12:12:44;;;;;;;4.03;2.27;;;;;;;;;;5397129;26;20000;-58
2024/04/22 12:15:12;;;;;;;2.83;2.20;;;8.80;99.90;;;;;;5411096;26;20330;-59
2024/04/22 12:17:37;;;;;;;3.23;2.40;;;8.80;99.90;;;;;;5413021;26;20076;-58
2024/04/22 12:20:03;;;;;;;3.27;1.83;;;;;;;;;;5404367;26;20384;-58
2024/04/22 12:22:29;;;;;;;3.50;1.80;;;;;;;;;;5412793;26;20017;-58
2024/04/22 12:24:55;;;;;;;5.60;2.17;;;;;;;;;;5398597;26;19996;-58
2024/04/22 12:27:23;;;;;;;2.33;1.37;;;8.80;99.90;;;;;;5417262;26;20456;-60
2024/04/22 12:29:50;;;;;;;2.03;1.43;;;;;;;;;;5415133;26;20342;-59
2024/04/22 12:32:16;;;;;;;1.60;1.20;;;;;;;;;;5413754;26;20011;-59
2024/04/22 12:34:42;;;;;;;1.33;1.23;;;;;;;;;;5414257;26;19999;-59
2024/04/22 12:37:08;;;;;;;2.20;1.10;;;;;;;;;;5416240;26;20420;-64
2024/04/22 12:39:34;;;;;;;1.87;1.00;;;8.80;99.90;;;;;;5399858;26;20011;-63
2024/04/22 12:42:00;;;;;;;0.97;0.90;;;;;;;;;;5406551;26;19995;-68
2024/04/22 12:44:26;;;;;;;2.33;1.20;;;;;;;;;;5412983;26;20073;-67
2024/04/22 12:52:20;;;;;;;2.67;1.10;;;8.50;99.90;;;;;;5409873;26;20493;-64
2024/04/22 12:54:46;;;;;;;1.00;0.90;;;;;;;;;;5416092;26;20008;-68
2024/04/22 12:57:13;;;;;;;0.87;0.60;;;;;;;;;;5405655;26;20013;-69
2024/04/22 12:59:38;;;;;;;0.70;0.70;;;8.30;99.90;;;;;;5409554;26;20445;-62
2024/04/22 13:02:04;;;;;;;0.87;0.67;;;8.50;99.90;;;;;;5415909;26;20010;-62
2024/04/22 13:04:30;;;;;;;1.50;1.00;;;8.60;99.90;;;;;;5415743;26;20014;-66
2024/04/22 13:06:57;;;;;;;1.43;0.90;;;;;;;;;;5414450;26;20026;-64
2024/04/22 13:09:23;;;;;;;0.90;0.90;;;8.50;99.90;;;;;;5415299;26;20036;-64
2024/04/22 13:11:49;;;;;;;0.90;0.90;;;8.60;99.90;;;;;;5414486;26;19999;-60
2024/04/22 13:14:15;;;;;;;1.73;1.10;;;8.70;99.90;;;;;;5412844;26;20004;-64
2024/04/22 13:16:41;;;;;;;1.10;0.60;;;8.80;99.90;;;;;;5407283;26;20060;-68
2024/04/22 13:19:06;;;;;;;1.00;0.73;;;8.80;99.90;;;;;;5395645;26;20000;-68
2024/04/22 13:21:32;;;;;;;1.20;0.97;;;8.80;99.90;;;;;;5388538;26;20011;-68
2024/04/22 13:23:57;;;;;;;1.83;0.90;;;8.90;99.90;;;;;;5393075;26;20000;-68
2024/04/22 13:26:23;;;;;;;1.97;1.03;;;;;;;;;;5384737;26;20004;-68
2024/04/22 13:28:49;;;;;;;0.57;0.57;;;;;;;;;;5388978;26;20433;-68
2024/04/22 13:31:15;;;;;;;0.73;0.50;;;;;;;;;;5415929;26;20043;-68
2024/04/22 13:33:42;;;;;;;0.53;0.50;;;;;;;;;;5411947;26;20014;-68
2024/04/22 13:36:08;;;;;;;0.80;0.50;;;;;;;;;;5413867;26;20014;-68
2024/04/22 13:38:34;;;;;;;1.73;0.80;;;;;;;;;;5430920;26;20079;-67
2024/04/22 13:41:00;;;;;;;0.80;0.77;;;8.90;99.90;;;;;;5396201;26;20007;-67
2024/04/22 13:43:26;;;;;;;0.80;0.70;;;9.00;99.90;;;;;;5416179;26;20014;-67
2024/04/22 13:45:51;;;;;;;1.67;0.70;;;8.90;99.90;;;;;;5416393;26;20014;-67
2024/04/22 13:48:17;;;;;;;4.07;0.83;;;8.90;99.90;;;;;;5416691;26;20014;-67
2024/04/22 13:50:42;;;;;;;1.17;0.60;;;8.80;99.90;;;;;;5416513;26;20012;-68
2024/04/22 13:53:08;;;;;;;0.80;0.80;;;8.80;99.90;;;;;;5416526;26;20003;-68
2024/04/22 13:55:36;;;;;;;1.83;1.33;;;8.90;99.90;;;;;;5414417;26;20000;-67